createdAt,value
2023-05-15T00:01:07.229Z,2.38
2023-05-15T00:03:34.172Z,2.38
2023-05-15T00:06:01.530Z,2.22
2023-05-15T00:08:28.505Z,2.63
2023-05-15T00:11:01.604Z,2.35
2023-05-15T00:13:29.460Z,2.20
2023-05-15T00:15:56.716Z,2.35
2023-05-15T00:18:23.840Z,2.80
2023-05-15T00:20:50.952Z,2.70
2023-05-15T00:23:17.868Z,2.90
2023-05-15T00:25:45.030Z,2.70
2023-05-15T00:28:12.005Z,2.55
2023-05-15T00:30:38.902Z,2.80
2023-05-15T00:33:07.149Z,2.78
2023-05-15T00:35:34.251Z,2.60
2023-05-15T00:38:01.267Z,2.85
2023-05-15T00:40:29.575Z,2.85
2023-05-15T00:42:58.376Z,2.88
2023-05-15T00:45:26.996Z,3.10
2023-05-15T00:47:56.994Z,2.95
2023-05-15T00:50:24.312Z,3.03
2023-05-15T00:52:51.499Z,2.80
2023-05-15T00:55:18.687Z,2.90
2023-05-15T00:57:48.149Z,3.28
2023-05-15T01:00:18.407Z,3.17
2023-05-15T01:02:46.394Z,2.45
2023-05-15T01:05:13.857Z,3.35
2023-05-15T01:08:19.717Z,3.00
2023-05-15T01:10:50.023Z,3.22
2023-05-15T01:13:22.303Z,3.53
2023-05-15T01:15:50.040Z,3.42
2023-05-15T01:18:17.650Z,3.60
2023-05-15T01:21:02.833Z,3.25
2023-05-15T01:23:59.369Z,3.30
2023-05-15T01:26:46.598Z,2.72
2023-05-15T01:29:32.617Z,3.33
2023-05-15T01:32:31.524Z,2.90
2023-05-15T01:35:22.671Z,2.67
2023-05-15T01:37:58.176Z,2.65
2023-05-15T01:40:26.265Z,2.60
2023-05-15T01:43:01.565Z,3.15
2023-05-15T01:45:31.933Z,2.67
2023-05-15T01:48:00.943Z,2.55
2023-05-15T01:50:30.973Z,2.60
2023-05-15T01:53:02.168Z,2.45
2023-05-15T01:55:30.589Z,2.53
2023-05-15T01:58:01.255Z,2.70
2023-05-15T02:00:30.289Z,2.90
2023-05-15T02:02:59.258Z,2.83
2023-05-15T02:05:27.601Z,2.90
2023-05-15T02:07:56.549Z,2.80
2023-05-15T02:10:24.361Z,2.95
2023-05-15T02:12:55.123Z,2.60
2023-05-15T02:15:23.592Z,2.58
2023-05-15T02:17:51.262Z,2.53
2023-05-15T02:20:18.670Z,2.42
2023-05-15T02:22:46.262Z,2.80
2023-05-15T02:25:16.078Z,2.75
2023-05-15T02:27:51.291Z,3.10
2023-05-15T02:30:29.707Z,2.97
2023-05-15T02:33:04.780Z,2.83
2023-05-15T02:35:32.413Z,2.72
2023-05-15T02:38:07.070Z,2.70
2023-05-15T02:40:36.408Z,2.90
2023-05-15T02:43:07.464Z,2.88
2023-05-15T02:45:35.660Z,3.22
2023-05-15T02:48:04.068Z,2.92
2023-05-15T02:50:31.792Z,2.75
2023-05-15T02:53:03.557Z,3.08
2023-05-15T02:55:31.395Z,2.90
2023-05-15T02:57:59.651Z,2.90
2023-05-15T03:00:27.109Z,2.90
2023-05-15T03:02:54.920Z,2.58
2023-05-15T03:05:22.333Z,2.38
2023-05-15T03:07:49.691Z,2.70
2023-05-15T03:10:17.254Z,2.40
2023-05-15T03:12:44.643Z,2.75
2023-05-15T03:15:12.065Z,3.00
2023-05-15T03:17:39.566Z,2.70
2023-05-15T03:20:07.847Z,3.17
2023-05-15T03:22:35.348Z,3.13
2023-05-15T03:25:02.693Z,2.50
2023-05-15T03:27:30.023Z,3.47
2023-05-15T03:29:57.557Z,2.60
2023-05-15T03:32:25.034Z,3.00
2023-05-15T03:34:52.416Z,3.22
2023-05-15T03:37:19.784Z,3.10
2023-05-15T03:39:47.073Z,3.45
2023-05-15T03:42:14.456Z,3.92
2023-05-15T03:44:41.891Z,3.97
2023-05-15T03:47:09.230Z,3.38
2023-05-15T03:49:36.578Z,3.58
2023-05-15T03:52:06.612Z,2.95
2023-05-15T03:54:34.397Z,3.20
2023-05-15T03:57:01.774Z,3.42
2023-05-15T03:59:29.064Z,3.80
2023-05-15T04:04:29.881Z,2.88
2023-05-15T04:06:57.229Z,3.00
2023-05-15T04:09:24.709Z,3.33
2023-05-15T04:11:52.214Z,3.53
2023-05-15T04:14:23.095Z,3.58
2023-05-15T04:16:51.457Z,3.53
2023-05-15T04:19:19.137Z,3.90
2023-05-15T04:21:46.974Z,3.53
2023-05-15T04:24:14.325Z,3.50
2023-05-15T04:26:41.999Z,3.53
2023-05-15T04:29:09.420Z,3.03
2023-05-15T04:34:44.635Z,3.45
2023-05-15T04:37:12.170Z,3.58
2023-05-15T04:39:40.542Z,3.38
2023-05-15T04:42:08.550Z,2.63
2023-05-15T04:44:37.736Z,3.20
2023-05-15T04:47:06.257Z,4.00
2023-05-15T04:49:33.911Z,3.28
2023-05-15T04:52:01.634Z,3.15
2023-05-15T04:54:30.823Z,3.28
2023-05-15T04:56:58.237Z,3.55
2023-05-15T04:59:26.008Z,3.42
2023-05-15T05:01:53.831Z,3.63
2023-05-15T05:04:21.418Z,3.55
2023-05-15T05:06:49.193Z,2.80
2023-05-15T05:09:18.177Z,2.78
2023-05-15T05:11:46.012Z,2.90
2023-05-15T05:14:14.811Z,2.88
2023-05-15T05:16:44.680Z,3.25
2023-05-15T05:19:12.754Z,3.38
2023-05-15T05:21:40.179Z,3.20
2023-05-15T05:24:07.617Z,4.25
2023-05-15T05:26:35.075Z,4.15
2023-05-15T05:29:02.555Z,3.83
2023-05-15T05:31:29.592Z,3.70
2023-05-15T05:33:56.532Z,3.55
2023-05-15T05:36:23.472Z,3.40
2023-05-15T05:38:50.627Z,3.50
2023-05-15T05:41:17.951Z,4.35
2023-05-15T05:43:44.922Z,4.30
2023-05-15T05:46:12.016Z,4.15
2023-05-15T05:48:40.304Z,4.22
2023-05-15T05:51:09.339Z,4.95
2023-05-15T05:53:37.664Z,4.90
2023-05-15T05:56:09.194Z,5.50
2023-05-15T05:58:36.667Z,5.57
2023-05-15T06:01:05.283Z,4.88
2023-05-15T06:03:34.993Z,5.72
2023-05-15T06:06:02.889Z,5.45
2023-05-15T06:08:30.387Z,4.82
2023-05-15T06:10:57.938Z,4.88
2023-05-15T06:13:27.360Z,4.85
2023-05-15T06:15:55.367Z,5.00
2023-05-15T06:18:22.768Z,5.47
2023-05-15T06:20:49.675Z,4.57
2023-05-15T06:23:17.349Z,4.93
2023-05-15T06:25:44.392Z,5.13
2023-05-15T06:28:11.337Z,5.70
2023-05-15T06:30:38.876Z,4.88
2023-05-15T06:33:06.742Z,4.85
2023-05-15T06:35:35.492Z,5.32
2023-05-15T06:38:02.887Z,6.25
2023-05-15T06:40:30.851Z,5.30
2023-05-15T06:42:59.735Z,4.78
2023-05-15T06:45:28.421Z,5.72
2023-05-15T06:47:58.609Z,5.85
2023-05-15T06:50:28.444Z,5.95
2023-05-15T06:52:55.971Z,5.60
2023-05-15T06:55:24.306Z,5.15
2023-05-15T06:57:51.750Z,5.32
2023-05-15T07:00:19.195Z,5.85
2023-05-15T07:02:46.303Z,4.80
2023-05-15T07:05:15.047Z,5.68
2023-05-15T07:07:42.807Z,5.35
2023-05-15T07:10:10.807Z,4.50
2023-05-15T07:12:37.717Z,4.82
2023-05-15T07:15:05.877Z,4.28
2023-05-15T07:17:33.985Z,5.22
2023-05-15T07:20:01.396Z,4.43
2023-05-15T07:22:32.863Z,4.90
2023-05-15T07:25:01.472Z,4.40
2023-05-15T07:27:28.596Z,4.85
2023-05-15T07:29:55.725Z,4.88
2023-05-15T07:32:22.920Z,4.50
2023-05-15T07:34:50.672Z,4.82
2023-05-15T07:37:17.797Z,4.38
2023-05-15T07:39:44.799Z,5.35
2023-05-15T07:42:12.005Z,5.40
2023-05-15T07:44:38.977Z,4.15
2023-05-15T07:47:06.398Z,4.38
2023-05-15T07:49:35.461Z,4.43
2023-05-15T07:52:02.564Z,4.05
2023-05-15T07:54:31.783Z,5.05
2023-05-15T07:56:59.458Z,4.70
2023-05-15T07:59:27.267Z,4.20
2023-05-15T08:01:57.023Z,4.18
2023-05-15T08:04:24.332Z,5.25
2023-05-15T08:06:52.373Z,4.85
2023-05-15T08:09:19.800Z,5.22
2023-05-15T08:11:46.814Z,5.00
2023-05-15T08:14:14.019Z,5.13
2023-05-15T08:16:41.263Z,4.20
2023-05-15T08:19:10.307Z,4.80
2023-05-15T08:21:38.603Z,5.57
2023-05-15T08:24:06.587Z,4.95
2023-05-15T08:26:33.680Z,5.78
2023-05-15T08:29:01.946Z,4.95
2023-05-15T08:31:29.686Z,4.53
2023-05-15T08:33:57.307Z,4.50
2023-05-15T08:36:24.331Z,4.30
2023-05-15T08:38:51.670Z,5.20
2023-05-15T08:41:39.935Z,5.13
2023-05-15T08:44:11.580Z,5.95
2023-05-15T08:46:39.559Z,5.57
2023-05-15T08:50:04.994Z,4.90
2023-05-15T08:52:34.241Z,4.55
2023-05-15T08:55:03.570Z,6.10
2023-05-15T08:57:32.874Z,6.07
2023-05-15T09:00:01.343Z,6.13
2023-05-15T09:02:30.396Z,5.93
2023-05-15T09:04:57.368Z,5.30
2023-05-15T09:07:25.585Z,5.32
2023-05-15T09:09:53.793Z,4.47
2023-05-15T09:12:24.074Z,5.38
2023-05-15T09:14:51.892Z,5.95
2023-05-15T09:17:21.866Z,6.22
2023-05-15T09:19:48.831Z,4.60
2023-05-15T09:22:24.152Z,4.20
2023-05-15T09:24:53.198Z,5.38
2023-05-15T09:27:20.762Z,5.60
2023-05-15T09:29:51.325Z,5.05
2023-05-15T09:32:18.738Z,4.65
2023-05-15T09:34:46.374Z,4.82
2023-05-15T09:37:31.150Z,5.65
2023-05-15T09:40:11.865Z,6.00
2023-05-15T09:42:39.059Z,5.90
2023-05-15T09:45:06.941Z,5.03
2023-05-15T09:47:34.890Z,5.20
2023-05-15T09:50:02.240Z,6.95
2023-05-15T09:52:30.192Z,5.05
2023-05-15T09:54:57.979Z,5.30
2023-05-15T09:57:25.200Z,5.78
2023-05-15T09:59:52.570Z,4.85
2023-05-15T10:02:32.736Z,5.40
2023-05-15T10:05:01.628Z,4.07
2023-05-15T10:07:35.926Z,4.60
2023-05-15T10:10:04.979Z,4.93
2023-05-15T10:12:32.694Z,4.30
2023-05-15T10:15:01.184Z,4.78
2023-05-15T10:17:32.174Z,3.95
2023-05-15T10:20:00.889Z,4.45
2023-05-15T10:22:35.968Z,4.78
2023-05-15T10:25:18.684Z,4.30
2023-05-15T10:27:49.302Z,4.53
2023-05-15T10:30:17.363Z,4.70
2023-05-15T10:32:45.937Z,5.10
2023-05-15T10:35:13.738Z,5.00
2023-05-15T10:37:42.942Z,4.43
2023-05-15T10:40:12.860Z,4.00
2023-05-15T10:42:47.862Z,4.47
2023-05-15T10:45:17.282Z,4.20
2023-05-15T10:47:45.473Z,4.43
2023-05-15T10:50:14.791Z,4.40
2023-05-15T10:52:42.412Z,3.92
2023-05-15T10:55:18.251Z,4.57
2023-05-15T10:57:48.586Z,4.38
2023-05-15T11:00:34.064Z,4.13
2023-05-15T11:03:02.072Z,3.22
2023-05-15T11:05:31.477Z,3.63
2023-05-15T11:08:19.883Z,3.47
2023-05-15T11:10:47.421Z,4.10
2023-05-15T11:13:14.531Z,4.18
2023-05-15T11:15:46.841Z,3.97
2023-05-15T11:18:14.875Z,4.10
2023-05-15T11:20:52.587Z,4.13
2023-05-15T11:23:25.942Z,4.57
2023-05-15T11:25:57.692Z,3.90
2023-05-15T11:28:31.568Z,4.40
2023-05-15T11:31:07.840Z,4.40
2023-05-15T11:33:38.902Z,3.63
2023-05-15T11:36:07.270Z,4.57
2023-05-15T11:38:40.810Z,4.57
2023-05-15T11:41:31.985Z,4.70
2023-05-15T11:43:59.472Z,5.13
2023-05-15T11:46:28.115Z,4.65
2023-05-15T11:48:55.672Z,4.07
2023-05-15T11:51:25.962Z,3.50
2023-05-15T11:53:55.877Z,4.88
2023-05-15T11:56:28.130Z,4.75
2023-05-15T11:59:01.276Z,4.85
2023-05-15T12:01:39.048Z,5.55
2023-05-15T12:04:17.323Z,5.25
2023-05-15T12:06:47.521Z,6.00
2023-05-15T12:09:17.377Z,5.43
2023-05-15T12:11:55.468Z,6.03
2023-05-15T12:17:21.120Z,5.90
2023-05-15T12:19:50.936Z,6.15
2023-05-15T12:22:19.340Z,7.03
2023-05-15T12:24:46.865Z,7.75
2023-05-15T12:27:16.094Z,6.10
2023-05-15T12:29:44.131Z,5.88
2023-05-15T12:32:12.419Z,7.00
2023-05-15T12:34:40.050Z,6.45
2023-05-15T12:37:12.549Z,5.30
2023-05-15T12:39:55.303Z,5.75
2023-05-15T12:42:23.817Z,6.38
2023-05-15T12:44:56.703Z,5.72
2023-05-15T12:47:28.340Z,5.57
2023-05-15T12:49:57.739Z,6.25
2023-05-15T12:52:30.004Z,5.90
2023-05-15T12:55:01.142Z,4.80
2023-05-15T12:57:28.521Z,5.10
2023-05-15T12:59:56.316Z,5.55
2023-05-15T13:02:23.778Z,6.05
2023-05-15T13:04:51.955Z,6.20
2023-05-15T13:07:18.922Z,5.32
2023-05-15T13:10:02.434Z,5.05
2023-05-15T13:12:39.825Z,6.50
2023-05-15T13:15:08.671Z,11.20
2023-05-15T13:17:40.259Z,11.00
2023-05-15T13:20:08.799Z,16.08
2023-05-15T13:22:36.922Z,11.32
2023-05-15T13:25:04.759Z,15.02
2023-05-15T13:27:32.072Z,20.25
2023-05-15T13:29:58.994Z,16.50
2023-05-15T13:32:26.009Z,16.73
2023-05-15T13:35:00.301Z,13.65
2023-05-15T13:37:27.978Z,12.18
2023-05-15T13:39:55.005Z,9.82
2023-05-15T13:42:21.896Z,9.60
2023-05-15T13:44:48.816Z,9.77
2023-05-15T13:47:15.954Z,10.85
2023-05-15T13:49:43.044Z,11.65
2023-05-15T13:52:10.440Z,11.50
2023-05-15T13:54:37.370Z,10.82
2023-05-15T13:57:04.781Z,10.35
2023-05-15T13:59:31.807Z,9.07
2023-05-15T14:01:59.210Z,8.77
2023-05-15T14:04:27.276Z,8.73
2023-05-15T14:06:54.537Z,9.82
2023-05-15T14:09:21.622Z,9.82
2023-05-15T14:11:48.542Z,12.90
2023-05-15T14:14:15.451Z,11.60
2023-05-15T14:16:42.722Z,9.90
2023-05-15T14:19:09.751Z,10.10
2023-05-15T14:21:36.850Z,13.48
2023-05-15T14:24:04.864Z,10.48
2023-05-15T14:26:32.312Z,10.80
2023-05-15T14:29:00.271Z,10.10
2023-05-15T14:31:27.493Z,10.75
2023-05-15T14:33:54.579Z,9.10
2023-05-15T14:36:21.742Z,8.40
2023-05-15T14:38:49.185Z,8.93
2023-05-15T14:41:16.813Z,8.88
2023-05-15T14:43:44.035Z,6.93
2023-05-15T14:46:11.584Z,7.40
2023-05-15T14:48:39.723Z,6.35
2023-05-15T14:51:07.935Z,5.63
2023-05-15T14:53:34.934Z,5.47
2023-05-15T14:56:01.952Z,5.32
2023-05-15T14:58:30.739Z,5.60
2023-05-15T15:00:57.962Z,5.00
2023-05-15T15:03:27.621Z,5.07
2023-05-15T15:05:55.653Z,4.72
2023-05-15T15:08:22.782Z,4.70
2023-05-15T15:10:49.841Z,4.65
2023-05-15T15:13:17.315Z,4.40
2023-05-15T15:15:44.959Z,4.55
2023-05-15T15:18:29.344Z,4.70
2023-05-15T15:20:59.446Z,4.43
2023-05-15T15:23:30.384Z,4.68
2023-05-15T15:26:09.421Z,4.38
2023-05-15T15:29:16.292Z,4.05
2023-05-15T16:06:16.750Z,12.02
2023-05-15T16:08:45.294Z,13.25
2023-05-15T16:11:13.453Z,10.70
2023-05-15T16:13:41.324Z,11.30
2023-05-15T16:16:08.750Z,12.77
2023-05-15T16:18:36.566Z,13.25
2023-05-15T16:21:04.674Z,18.58
2023-05-15T16:23:36.631Z,20.52
2023-05-15T16:26:05.607Z,22.05
2023-05-15T16:31:41.679Z,29.92
2023-05-15T16:34:10.581Z,25.00
2023-05-15T16:36:37.529Z,22.48
2023-05-15T16:39:05.175Z,28.13
2023-05-15T16:41:32.134Z,31.30
2023-05-15T16:43:59.271Z,31.40
2023-05-15T16:46:26.389Z,33.90
2023-05-15T16:48:53.526Z,27.70
2023-05-15T16:51:21.741Z,26.77
2023-05-15T16:53:49.103Z,21.13
2023-05-15T16:56:16.226Z,25.10
2023-05-15T16:58:43.399Z,21.80
2023-05-15T17:01:10.518Z,20.95
2023-05-15T17:03:38.387Z,23.55
2023-05-15T17:06:07.247Z,23.70
2023-05-15T17:08:34.704Z,23.30
2023-05-15T17:11:01.765Z,20.92
2023-05-15T17:13:29.270Z,22.35
2023-05-15T17:15:56.963Z,23.63
2023-05-15T17:18:24.006Z,22.00
2023-05-15T17:20:51.456Z,24.52
2023-05-15T17:23:21.710Z,22.85
2023-05-15T17:25:50.326Z,23.00
2023-05-15T17:28:17.595Z,23.25
2023-05-15T17:30:45.309Z,24.25
2023-05-15T17:33:13.156Z,23.05
2023-05-15T17:35:40.327Z,24.15
2023-05-15T17:38:08.675Z,26.33
2023-05-15T17:40:35.833Z,26.92
2023-05-15T17:43:03.193Z,23.98
2023-05-15T17:45:30.127Z,24.23
2023-05-15T17:48:03.626Z,24.67
2023-05-15T17:50:31.672Z,27.90
2023-05-15T17:52:58.799Z,23.75
2023-05-15T17:55:26.768Z,25.65
2023-05-15T17:57:54.136Z,33.80
2023-05-15T18:00:21.419Z,24.80
2023-05-15T18:02:48.882Z,24.98
2023-05-15T18:05:16.005Z,24.48
2023-05-15T18:07:43.335Z,24.33
2023-05-15T18:10:10.798Z,23.23
2023-05-15T18:12:38.194Z,22.48
2023-05-15T18:21:34.591Z,19.85
2023-05-15T18:24:03.618Z,21.90
2023-05-15T18:26:31.214Z,20.10
2023-05-15T18:28:58.793Z,19.33
2023-05-15T18:31:25.857Z,21.58
2023-05-15T18:33:53.691Z,21.00
2023-05-15T18:36:20.829Z,21.63
2023-05-15T18:38:47.912Z,23.08
2023-05-15T18:41:14.829Z,21.33
2023-05-15T18:43:41.735Z,21.10
2023-05-15T18:46:08.825Z,24.58
2023-05-15T18:48:35.959Z,26.05
2023-05-15T18:51:03.197Z,19.48
2023-05-15T18:53:30.108Z,18.83
2023-05-15T18:55:57.943Z,23.45
2023-05-15T18:58:25.608Z,25.88
2023-05-15T19:00:53.050Z,18.67
2023-05-15T19:03:21.754Z,20.75
2023-05-15T19:05:49.678Z,20.27
2023-05-15T19:08:16.749Z,23.85
2023-05-15T19:10:52.628Z,23.15
2023-05-15T19:13:22.466Z,22.88
2023-05-15T19:15:53.766Z,23.27
2023-05-15T19:18:21.164Z,23.13
2023-05-15T19:20:52.381Z,21.55
2023-05-15T19:23:20.943Z,24.15
2023-05-15T19:25:48.576Z,22.85
2023-05-15T19:28:16.825Z,23.70
2023-05-15T19:30:43.920Z,21.10
2023-05-15T19:33:12.886Z,25.23
2023-05-15T19:35:40.524Z,20.95
2023-05-15T19:38:07.626Z,24.67
2023-05-15T19:40:36.154Z,22.70
2023-05-15T19:43:03.065Z,21.50
2023-05-15T19:45:30.497Z,19.52
2023-05-15T19:47:59.066Z,19.45
2023-05-15T19:50:28.218Z,19.98
2023-05-15T19:52:55.870Z,19.75
2023-05-15T19:55:22.880Z,21.95
2023-05-15T19:57:51.211Z,21.30
2023-05-15T20:00:18.458Z,20.05
2023-05-15T20:02:46.942Z,19.95
2023-05-15T20:05:15.773Z,19.13
2023-05-15T20:07:43.199Z,21.48
2023-05-15T20:10:11.208Z,20.92
2023-05-15T20:12:39.123Z,19.77
2023-05-15T20:15:09.172Z,19.73
2023-05-15T20:17:36.224Z,20.00
2023-05-15T20:20:08.378Z,19.85
2023-05-15T20:22:35.614Z,18.45
2023-05-15T20:25:02.606Z,18.90
2023-05-15T20:27:29.556Z,19.65
2023-05-15T20:30:06.082Z,20.73
2023-05-15T20:32:33.629Z,18.02
2023-05-15T20:35:01.646Z,18.90
2023-05-15T20:37:28.996Z,20.20
2023-05-15T20:39:57.738Z,22.52
2023-05-15T20:42:27.263Z,20.38
2023-05-15T20:44:54.232Z,19.48
2023-05-15T20:47:21.269Z,21.15
2023-05-15T20:50:57.312Z,20.75
2023-05-15T20:53:48.174Z,20.35
2023-05-15T20:56:38.944Z,18.95
2023-05-15T20:59:44.999Z,22.00
2023-05-15T21:02:34.647Z,18.25
2023-05-15T21:05:09.157Z,20.15
2023-05-15T21:07:43.644Z,21.83
2023-05-15T21:10:11.601Z,19.92
2023-05-15T21:12:39.752Z,22.23
2023-05-15T21:15:07.675Z,21.98
2023-05-15T21:17:34.926Z,20.00
2023-05-15T21:20:04.064Z,19.88
2023-05-15T21:22:31.151Z,21.40
2023-05-15T21:25:04.843Z,22.38
2023-05-15T21:27:31.761Z,20.77
2023-05-15T21:29:58.732Z,18.75
2023-05-15T21:32:25.782Z,20.27
2023-05-15T21:34:52.668Z,21.75
2023-05-15T21:37:19.672Z,21.33
2023-05-15T21:39:46.583Z,21.67
2023-05-15T21:42:13.525Z,18.50
2023-05-15T21:44:40.555Z,18.88
2023-05-15T21:47:07.459Z,20.38
2023-05-15T21:50:10.652Z,18.70
2023-05-15T21:53:00.759Z,19.55
2023-05-15T21:55:58.643Z,17.63
2023-05-15T21:59:15.482Z,20.27
2023-05-15T22:02:06.381Z,20.70
2023-05-15T22:04:44.417Z,17.42
2023-05-15T22:07:23.297Z,17.55
2023-05-15T22:09:52.099Z,18.48
2023-05-15T22:12:26.454Z,18.13
2023-05-15T22:14:58.742Z,18.50
2023-05-15T22:17:29.103Z,16.75
2023-05-15T22:20:07.224Z,16.85
2023-05-15T22:22:35.813Z,17.67
2023-05-15T22:25:03.407Z,17.50
2023-05-15T22:27:30.703Z,18.85
2023-05-15T22:29:57.902Z,17.02
2023-05-15T22:32:25.263Z,19.80
2023-05-15T22:34:54.089Z,19.45
2023-05-15T22:37:21.888Z,19.90
2023-05-15T22:39:48.885Z,20.17
2023-05-15T22:42:15.794Z,18.52
2023-05-15T22:44:42.750Z,21.42
2023-05-15T22:47:10.186Z,17.73
2023-05-15T22:49:37.940Z,17.58
2023-05-15T22:52:06.809Z,19.58
2023-05-15T22:54:33.768Z,19.40
2023-05-15T22:57:00.942Z,19.55
2023-05-15T22:59:27.893Z,20.00
2023-05-15T23:01:54.984Z,20.10
2023-05-15T23:04:22.153Z,20.25
2023-05-15T23:06:49.652Z,19.75
2023-05-15T23:09:17.943Z,19.80
2023-05-15T23:11:44.866Z,18.33
2023-05-15T23:14:12.096Z,18.27
2023-05-15T23:16:38.991Z,17.10
2023-05-15T23:19:06.037Z,17.65
2023-05-15T23:21:33.127Z,19.05
2023-05-15T23:24:00.674Z,17.92
2023-05-15T23:26:27.671Z,17.13
2023-05-15T23:28:54.603Z,17.92
2023-05-15T23:31:21.553Z,18.50
2023-05-15T23:33:48.649Z,18.38
2023-05-15T23:36:15.644Z,18.27
2023-05-15T23:38:43.499Z,19.02
2023-05-15T23:41:10.432Z,17.48
2023-05-15T23:43:37.379Z,19.50
2023-05-15T23:46:04.462Z,18.38
2023-05-15T23:48:31.686Z,19.88
2023-05-15T23:50:58.725Z,17.88
2023-05-15T23:53:25.777Z,19.30
2023-05-15T23:55:53.604Z,19.92
2023-05-15T23:58:21.400Z,20.77
